Time;durP1;ratioP1;P1;durP2;ratioP2;P2;SDS_P1;SDS_P2;PMS_P1;PMS_P2;Temp;Humidity;BMP_temperature;BMP_pressure;BME280_temperature;BME280_humidity;BME280_pressure;Samples;Min_cycle;Max_cycle;Signal;HPM_P1;HPM_P2
2022/09/14 00:01:08;;;;;;;2.60;1.70;;;18.30;76.50;;;;;;5026640;28;20025;-77
2022/09/14 00:03:34;;;;;;;4.15;1.70;;;18.30;76.30;;;;;;5027346;28;20042;-78
2022/09/14 00:06:09;;;;;;;6.70;1.50;;;18.30;76.00;;;;;;5030426;28;20057;-79
2022/09/14 00:08:36;;;;;;;;;;;18.40;75.90;;;;;;5027410;28;20033;-76
2022/09/14 00:11:14;;;;;;;2.30;1.05;;;18.30;75.50;;;;;;5027896;28;19913;-77
2022/09/14 00:13:43;;;;;;;6.15;1.52;;;18.40;75.30;;;;;;5034936;28;20041;-78
2022/09/14 00:16:15;;;;;;;2.25;0.80;;;18.30;75.10;;;;;;5028643;28;20376;-74
2022/09/14 00:18:42;;;;;;;2.60;1.20;;;18.40;74.90;;;;;;5031245;28;20025;-80
2022/09/14 00:21:10;;;;;;;4.13;0.75;;;18.30;74.60;;;;;;5029997;28;20062;-82
2022/09/14 00:23:38;;;;;;;4.30;0.80;;;18.40;74.60;;;;;;5029403;28;20558;-80
2022/09/14 00:26:11;;;;;;;5.20;2.08;;;18.30;74.40;;;;;;5028063;28;20017;-76
2022/09/14 00:28:39;;;;;;;2.85;1.20;;;18.40;74.40;;;;;;5029453;28;20032;-78
2022/09/14 00:31:07;;;;;;;5.18;1.02;;;18.30;74.20;;;;;;5028958;28;20029;-80
2022/09/14 00:33:33;;;;;;;3.97;1.63;;;18.40;74.50;;;;;;5027374;28;20542;-75
2022/09/14 00:36:11;;;;;;;4.53;0.90;;;18.40;74.50;;;;;;5024658;28;20497;-80
2022/09/14 00:38:39;;;;;;;2.85;1.00;;;18.30;74.30;;;;;;5030793;28;20026;-78
2022/09/14 00:41:08;;;;;;;2.55;0.98;;;18.30;74.00;;;;;;5032339;28;20476;-81
2022/09/14 00:43:52;;;;;;;1.95;1.27;;;18.30;74.50;;;;;;5022928;28;20128;-81
2022/09/14 00:46:18;;;;;;;2.90;1.13;;;18.30;73.40;;;;;;5029328;28;20404;-80
2022/09/14 00:48:45;;;;;;;1.58;1.30;;;18.30;73.90;;;;;;5029536;28;20013;-81
2022/09/14 00:51:14;;;;;;;1.38;0.88;;;18.30;73.00;;;;;;5033345;28;20037;-82
2022/09/14 00:53:40;;;;;;;2.47;1.30;;;18.30;72.80;;;;;;5033033;28;20125;-83
2022/09/14 00:56:07;;;;;;;3.50;0.80;;;18.30;72.60;;;;;;5032890;28;20633;-78
2022/09/14 00:58:33;;;;;;;1.85;0.70;;;18.20;72.40;;;;;;5046172;28;20491;-81
2022/09/14 01:01:01;;;;;;;3.47;1.08;;;18.30;72.40;;;;;;5032791;28;20496;-79
2022/09/14 01:03:27;;;;;;;9.25;1.23;;;18.20;72.20;;;;;;5030863;28;20033;-75
2022/09/14 01:06:19;;;;;;;3.03;1.65;;;18.20;72.00;;;;;;5032575;28;20079;-80
2022/09/14 01:09:15;;;;;;;2.05;0.77;;;18.20;71.80;;;;;;5033561;28;20132;-75
2022/09/14 01:11:50;;;;;;;2.33;0.82;;;18.20;71.90;;;;;;5017907;28;20160;-74
2022/09/14 01:14:46;;;;;;;5.40;0.90;;;18.20;71.90;;;;;;5030588;28;20053;-79
2022/09/14 01:17:29;;;;;;;7.07;1.00;;;18.20;71.80;;;;;;5033226;28;20111;-79
2022/09/14 01:20:06;;;;;;;0.90;0.57;;;18.20;72.10;;;;;;5045556;28;20368;-81
2022/09/14 01:22:41;;;;;;;1.00;0.68;;;18.20;72.10;;;;;;5035112;28;20037;-81
2022/09/14 01:25:21;;;;;;;2.38;0.70;;;18.20;72.10;;;;;;5032682;28;20060;-81
2022/09/14 01:27:50;;;;;;;3.40;1.52;;;18.20;72.10;;;;;;5029543;28;20017;-76
2022/09/14 01:30:21;;;;;;;2.15;0.77;;;18.30;72.00;;;;;;5030415;28;20022;-74
2022/09/14 01:33:02;;;;;;;1.40;1.00;;;18.20;71.80;;;;;;5028721;28;20018;-79
2022/09/14 01:35:36;;;;;;;2.42;0.90;;;18.20;71.80;;;;;;5032667;28;20492;-74
2022/09/14 01:38:09;;;;;;;3.30;0.88;;;18.20;71.60;;;;;;5030458;28;20032;-78
2022/09/14 01:40:40;;;;;;;1.60;0.80;;;18.20;71.60;;;;;;5032453;28;20383;-75
2022/09/14 01:43:19;;;;;;;2.15;0.80;;;18.20;71.50;;;;;;5032950;28;20024;-76
2022/09/14 01:45:56;;;;;;;2.63;1.00;;;18.20;71.50;;;;;;5029337;28;20021;-80
2022/09/14 01:48:47;;;;;;;3.20;0.82;;;18.10;71.40;;;;;;5036152;28;20017;-77
2022/09/14 01:51:20;;;;;;;5.97;1.35;;;18.10;71.30;;;;;;5030810;28;20049;-73
2022/09/14 01:53:53;;;;;;;0.80;0.57;;;18.10;71.10;;;;;;5030033;28;20018;-79
2022/09/14 01:56:25;;;;;;;1.85;0.77;;;18.10;71.10;;;;;;5030725;28;20041;-77
2022/09/14 01:59:13;;;;;;;2.72;1.67;;;18.10;71.00;;;;;;5026006;28;20871;-76
2022/09/14 02:01:48;;;;;;;3.28;1.00;;;18.10;70.90;;;;;;5030564;28;20025;-79
2022/09/14 02:04:16;;;;;;;;;;;18.10;70.90;;;;;;5036777;28;20492;-78
2022/09/14 02:06:46;;;;;;;4.07;1.30;;;18.10;70.80;;;;;;5027181;28;19905;-75
2022/09/14 04:10:22;;;;;;;13.88;2.30;;;16.70;71.90;;;;;;5054704;28;20392;-79
2022/09/14 04:12:49;;;;;;;4.45;1.33;;;16.90;73.90;;;;;;5046397;28;20116;-80
2022/09/14 04:15:15;;;;;;;1.83;1.25;;;16.90;73.70;;;;;;5050123;28;20391;-77
2022/09/14 04:17:42;;;;;;;13.77;1.83;;;16.90;72.90;;;;;;5046142;28;20024;-73
2022/09/14 04:20:09;;;;;;;5.30;3.17;;;16.90;72.10;;;;;;5043962;28;20060;-72
2022/09/14 04:22:35;;;;;;;40.28;27.05;;;16.90;72.20;;;;;;5049416;28;20025;-72
2022/09/14 04:25:02;;;;;;;33.80;21.85;;;17.00;72.40;;;;;;5042941;28;20029;-69
2022/09/14 04:27:30;;;;;;;14.13;11.63;;;16.90;72.00;;;;;;5046006;28;20049;-73
2022/09/14 04:29:56;;;;;;;9.77;7.40;;;16.90;71.60;;;;;;5043787;28;20075;-75
2022/09/14 04:32:23;;;;;;;5.15;3.85;;;17.00;71.30;;;;;;5045993;28;20349;-71
2022/09/14 04:34:49;;;;;;;3.92;2.60;;;16.90;71.20;;;;;;5048927;28;20029;-72
2022/09/14 04:37:16;;;;;;;3.92;1.90;;;16.90;71.10;;;;;;5046633;28;20472;-72
2022/09/14 04:39:42;;;;;;;1.30;1.20;;;16.90;70.90;;;;;;5049636;28;20075;-78
2022/09/14 04:42:09;;;;;;;3.45;1.65;;;16.90;70.80;;;;;;5047207;28;20392;-75
2022/09/14 04:44:35;;;;;;;2.92;1.20;;;16.90;70.70;;;;;;5051950;28;20462;-74
2022/09/14 04:47:02;;;;;;;2.40;1.27;;;16.90;70.70;;;;;;5045234;28;20025;-74
2022/09/14 04:49:28;;;;;;;2.33;0.90;;;16.90;70.60;;;;;;5047846;28;20029;-74
2022/09/14 04:51:55;;;;;;;3.28;1.80;;;16.90;70.50;;;;;;5046890;28;20108;-74
2022/09/14 04:55:01;;;;;;;1.77;1.00;;;16.90;70.50;;;;;;5047736;28;20013;-74
2022/09/14 04:58:07;;;;;;;2.08;1.02;;;16.90;70.50;;;;;;5045317;28;20037;-74
2022/09/14 05:01:13;;;;;;;2.25;1.55;;;16.80;70.40;;;;;;5048378;28;20083;-70
2022/09/14 05:04:19;;;;;;;2.42;1.38;;;16.80;70.50;;;;;;5048526;28;20509;-75
2022/09/14 05:07:25;;;;;;;4.28;1.80;;;16.80;70.80;;;;;;5047295;28;20128;-75
2022/09/14 05:10:31;;;;;;;4.72;1.33;;;16.80;71.00;;;;;;5043638;28;20056;-75
2022/09/14 05:13:38;;;;;;;2.92;1.30;;;16.80;71.70;;;;;;5018502;28;20025;-74
2022/09/14 05:16:46;;;;;;;2.70;1.90;;;16.80;71.00;;;;;;5031635;28;20017;-73
2022/09/14 05:19:52;;;;;;;4.82;2.15;;;16.80;71.10;;;;;;5031757;28;20045;-76
2022/09/14 05:22:58;;;;;;;2.75;1.40;;;16.80;71.20;;;;;;5035339;28;20052;-75
2022/09/14 05:26:04;;;;;;;4.00;1.42;;;16.70;71.30;;;;;;5033298;28;20550;-74
2022/09/14 05:28:32;;;;;;;4.55;1.65;;;16.80;71.50;;;;;;5033606;28;20030;-74
2022/09/14 05:31:02;;;;;;;9.05;1.83;;;16.70;71.50;;;;;;5032839;28;20048;-75
2022/09/14 05:33:29;;;;;;;4.45;1.40;;;16.70;71.70;;;;;;5040407;28;20021;-74
2022/09/14 05:36:01;;;;;;;3.00;1.50;;;16.70;73.00;;;;;;5036225;28;20030;-75
2022/09/14 05:38:32;;;;;;;3.65;2.10;;;16.70;73.40;;;;;;5034466;28;20056;-73
2022/09/14 05:40:58;;;;;;;10.50;1.92;;;16.70;73.30;;;;;;5028683;28;20503;-75
2022/09/14 05:43:25;;;;;;;6.45;2.67;;;16.70;73.40;;;;;;5033288;28;21120;-76
2022/09/14 05:45:51;;;;;;;3.13;2.00;;;16.70;73.40;;;;;;5035194;28;20017;-76
2022/09/14 05:48:18;;;;;;;5.53;2.70;;;16.80;73.20;;;;;;5036572;28;20027;-76
2022/09/14 05:50:45;;;;;;;5.40;2.05;;;16.80;73.50;;;;;;5035572;28;20024;-73
2022/09/14 05:53:12;;;;;;;5.07;1.67;;;16.80;74.10;;;;;;5036246;28;20040;-72
2022/09/14 05:55:38;;;;;;;7.03;2.55;;;16.80;73.90;;;;;;5036228;28;20032;-75
2022/09/14 05:58:05;;;;;;;5.22;1.92;;;16.80;74.00;;;;;;5033394;28;20064;-75
2022/09/14 06:00:31;;;;;;;10.80;2.03;;;16.80;74.60;;;;;;5037685;28;20014;-74
2022/09/14 06:02:58;;;;;;;7.32;2.35;;;16.80;75.20;;;;;;5038340;28;20117;-72
2022/09/14 06:05:24;;;;;;;4.90;1.75;;;16.90;75.30;;;;;;5034678;28;20061;-76
2022/09/14 06:07:54;;;;;;;4.32;2.20;;;16.90;75.10;;;;;;5032309;28;20044;-71
2022/09/14 06:10:21;;;;;;;8.05;2.13;;;16.90;74.80;;;;;;5039048;28;20030;-75
2022/09/14 06:12:47;;;;;;;5.10;1.65;;;16.90;75.30;;;;;;5032333;28;20029;-75
2022/09/14 06:15:14;;;;;;;6.28;1.77;;;16.90;75.10;;;;;;5034730;28;20475;-75
2022/09/14 06:17:40;;;;;;;10.48;2.67;;;16.90;75.00;;;;;;5034517;28;20029;-72
2022/09/14 06:20:07;;;;;;;6.95;2.05;;;16.90;75.00;;;;;;5033510;28;20009;-73
2022/09/14 06:22:34;;;;;;;6.00;2.38;;;17.00;74.90;;;;;;5035306;28;20526;-76
2022/09/14 06:25:00;;;;;;;8.98;2.85;;;17.00;74.70;;;;;;5037258;28;20391;-72
2022/09/14 06:27:27;;;;;;;12.93;4.82;;;17.00;74.60;;;;;;5035794;28;20052;-74
2022/09/14 06:29:53;;;;;;;10.85;3.35;;;17.00;74.50;;;;;;5031152;28;20499;-73
2022/09/14 06:32:22;;;;;;;8.98;2.92;;;17.00;74.60;;;;;;5037884;28;20030;-72
2022/09/14 06:34:48;;;;;;;13.27;3.20;;;17.10;74.70;;;;;;5031262;28;20021;-75
2022/09/14 06:37:15;;;;;;;12.50;5.32;;;17.10;74.80;;;;;;5036516;28;20499;-73
2022/09/14 06:39:41;;;;;;;17.92;4.65;;;17.10;75.20;;;;;;5031899;28;20029;-72
2022/09/14 06:42:08;;;;;;;22.27;5.45;;;17.20;75.40;;;;;;5032888;28;20365;-73
2022/09/14 06:44:34;;;;;;;17.77;5.78;;;17.20;76.00;;;;;;5033631;28;20013;-75
2022/09/14 06:47:01;;;;;;;16.00;5.70;;;17.30;75.90;;;;;;5032730;28;20223;-75
2022/09/14 06:49:27;;;;;;;8.30;3.70;;;17.30;75.60;;;;;;5034658;28;20017;-72
2022/09/14 06:51:56;;;;;;;9.95;5.40;;;17.30;75.40;;;;;;5036669;28;20786;-74
2022/09/14 06:54:24;;;;;;;9.85;4.75;;;17.40;75.20;;;;;;5039519;28;20044;-75
2022/09/14 06:56:50;;;;;;;10.98;4.57;;;17.40;75.00;;;;;;5037452;28;20099;-74
2022/09/14 06:59:18;;;;;;;9.15;4.65;;;17.40;74.70;;;;;;5036047;28;20042;-74
2022/09/14 07:01:45;;;;;;;23.33;5.47;;;17.40;74.50;;;;;;5033683;28;20024;-72
2022/09/14 07:04:13;;;;;;;14.30;5.15;;;17.50;74.50;;;;;;5033772;28;20523;-73
2022/09/14 07:06:42;;;;;;;9.65;5.07;;;17.50;74.60;;;;;;5035464;28;20491;-73
2022/09/14 07:09:09;;;;;;;17.73;5.55;;;17.60;75.00;;;;;;5032879;28;20547;-73
2022/09/14 07:11:36;;;;;;;10.50;5.70;;;17.60;75.10;;;;;;5035062;28;20035;-74
2022/09/14 07:14:02;;;;;;;21.63;9.32;;;17.70;75.20;;;;;;5030193;28;20044;-76
2022/09/14 07:16:31;;;;;;;15.60;7.68;;;17.80;75.90;;;;;;5037034;28;20082;-72
2022/09/14 07:19:00;;;;;;;12.75;7.55;;;17.90;76.10;;;;;;5029278;28;20052;-73
2022/09/14 07:21:27;;;;;;;13.68;8.45;;;18.00;76.20;;;;;;5035062;28;20091;-72
2022/09/14 07:23:57;;;;;;;17.67;8.05;;;18.00;76.30;;;;;;5036321;28;20384;-72
2022/09/14 07:26:24;;;;;;;20.75;9.10;;;18.10;76.30;;;;;;5029891;28;20071;-73
2022/09/14 07:28:55;;;;;;;18.35;9.13;;;18.20;76.30;;;;;;5034384;28;20046;-73
2022/09/14 07:31:30;;;;;;;24.42;10.20;;;18.20;75.90;;;;;;5034153;28;20411;-74
2022/09/14 07:34:00;;;;;;;20.50;8.52;;;18.20;75.70;;;;;;5031229;28;20384;-72
2022/09/14 07:36:27;;;;;;;21.52;8.32;;;18.30;75.80;;;;;;5034479;28;20436;-74
2022/09/14 07:38:55;;;;;;;13.30;7.70;;;18.40;75.60;;;;;;5033270;28;20113;-71
2022/09/14 07:41:27;;;;;;;20.13;9.10;;;18.40;75.30;;;;;;5035687;28;20025;-72
2022/09/14 07:43:59;;;;;;;18.40;6.97;;;18.50;75.10;;;;;;5031445;28;20075;-73
2022/09/14 07:46:27;;;;;;;24.50;8.63;;;18.50;74.40;;;;;;5031853;28;20048;-74
2022/09/14 07:48:58;;;;;;;16.50;6.32;;;18.60;74.30;;;;;;5034976;28;20025;-73
2022/09/14 07:51:25;;;;;;;15.52;7.25;;;18.70;74.00;;;;;;5037663;28;20029;-72
2022/09/14 07:53:52;;;;;;;10.70;6.40;;;18.70;73.10;;;;;;5033664;28;20376;-72
2022/09/14 07:56:19;;;;;;;11.20;6.32;;;18.80;72.90;;;;;;5033744;28;20030;-72
2022/09/14 07:58:45;;;;;;;14.93;7.10;;;18.90;72.30;;;;;;5032312;28;20033;-72
2022/09/14 08:01:18;;;;;;;15.30;7.00;;;18.90;71.30;;;;;;5034289;28;20020;-73
2022/09/14 08:03:47;;;;;;;14.18;6.72;;;19.00;70.80;;;;;;5034284;28;20026;-72
2022/09/14 08:06:16;;;;;;;13.60;6.88;;;19.00;70.60;;;;;;5031962;28;20029;-73
2022/09/14 08:08:44;;;;;;;9.65;6.07;;;19.10;70.60;;;;;;5032059;28;20366;-73
2022/09/14 08:11:14;;;;;;;8.88;5.13;;;19.20;70.50;;;;;;5036633;28;20076;-73
2022/09/14 08:13:46;;;;;;;14.63;4.90;;;19.30;69.50;;;;;;5034124;28;20049;-73
2022/09/14 08:16:14;;;;;;;11.70;5.00;;;19.40;69.20;;;;;;5035759;28;20387;-73
2022/09/14 08:18:40;;;;;;;9.35;5.07;;;19.40;68.80;;;;;;5032295;28;20029;-73
2022/09/14 08:21:12;;;;;;;6.47;4.20;;;19.50;68.50;;;;;;5030251;28;20053;-73
2022/09/14 08:23:40;;;;;;;10.90;4.10;;;19.60;68.10;;;;;;5035036;28;20013;-73
2022/09/14 08:26:18;;;;;;;15.00;6.20;;;19.70;67.40;;;;;;5033382;28;20045;-72
2022/09/14 08:28:46;;;;;;;3.47;2.28;;;19.80;66.80;;;;;;5033804;28;20028;-72
2022/09/14 08:31:19;;;;;;;7.07;2.47;;;19.90;66.30;;;;;;5029878;28;20464;-73
2022/09/14 08:33:53;;;;;;;7.03;2.28;;;19.90;64.80;;;;;;5035305;28;20439;-73
2022/09/14 08:36:21;;;;;;;7.70;2.30;;;20.00;63.90;;;;;;5033870;28;20025;-73
2022/09/14 08:38:47;;;;;;;10.65;1.90;;;20.10;63.50;;;;;;5035725;28;20037;-71
2022/09/14 08:41:27;;;;;;;6.80;2.03;;;20.20;62.30;;;;;;5032300;28;20021;-73
2022/09/14 08:44:12;;;;;;;4.40;2.35;;;20.30;61.70;;;;;;5030506;28;20014;-72
2022/09/14 08:46:43;;;;;;;7.10;2.78;;;20.40;61.10;;;;;;5035769;28;20017;-73
2022/09/14 08:49:29;;;;;;;4.88;2.72;;;20.50;60.90;;;;;;5036472;28;20533;-72
2022/09/14 08:51:56;;;;;;;4.10;2.67;;;20.60;60.50;;;;;;5034054;28;20021;-72
2022/09/14 08:54:22;;;;;;;4.95;3.05;;;20.70;59.40;;;;;;5035219;28;20053;-74
2022/09/14 08:57:01;;;;;;;6.22;1.90;;;20.80;59.00;;;;;;5036159;28;20025;-72
2022/09/14 08:59:42;;;;;;;2.38;1.83;;;20.90;58.80;;;;;;5037516;28;20051;-72
2022/09/14 09:02:32;;;;;;;4.10;2.70;;;21.00;59.90;;;;;;5035885;28;20211;-74
2022/09/14 09:05:23;;;;;;;9.20;2.85;;;21.10;61.70;;;;;;5031854;28;20100;-73
2022/09/14 09:08:08;;;;;;;7.15;3.35;;;21.20;61.80;;;;;;5035345;28;20189;-72
2022/09/14 09:10:38;;;;;;;5.80;2.95;;;21.30;61.90;;;;;;5032475;28;20033;-72
2022/09/14 09:13:06;;;;;;;9.15;2.97;;;21.30;61.60;;;;;;5035728;28;20024;-73
2022/09/14 09:15:49;;;;;;;18.02;2.88;;;21.30;61.00;;;;;;5035841;28;20429;-71
2022/09/14 09:18:32;;;;;;;6.25;2.65;;;21.30;61.70;;;;;;5037772;28;20032;-71
2022/09/14 09:21:06;;;;;;;5.78;2.20;;;21.40;61.20;;;;;;5035823;28;20025;-73
2022/09/14 09:23:34;;;;;;;5.88;1.88;;;21.50;60.50;;;;;;5034286;28;20045;-72
2022/09/14 09:26:26;;;;;;;4.18;2.45;;;21.50;60.50;;;;;;5035553;28;20037;-71
2022/09/14 09:28:56;;;;;;;5.03;1.48;;;21.50;60.00;;;;;;5033909;28;20404;-72
2022/09/14 09:31:51;;;;;;;7.22;1.67;;;21.60;59.00;;;;;;5039843;28;20381;-71
2022/09/14 09:34:27;;;;;;;6.03;2.10;;;21.60;58.00;;;;;;5031723;28;20079;-73
2022/09/14 09:36:54;;;;;;;4.40;1.23;;;21.70;57.60;;;;;;5032964;28;20156;-73
2022/09/14 09:39:24;;;;;;;3.17;0.95;;;21.80;56.80;;;;;;5033369;28;20037;-72
2022/09/14 09:42:19;;;;;;;3.58;1.40;;;21.90;55.20;;;;;;5035544;28;20458;-73
2022/09/14 09:45:04;;;;;;;3.38;1.00;;;21.90;54.00;;;;;;5035948;28;20392;-73
2022/09/14 09:47:39;;;;;;;5.80;1.30;;;22.00;52.50;;;;;;5032090;28;20103;-73
2022/09/14 09:50:20;;;;;;;3.38;0.95;;;22.10;53.40;;;;;;5034310;28;20573;-71
2022/09/14 09:52:58;;;;;;;2.67;1.23;;;22.20;53.70;;;;;;5038263;28;20079;-73
2022/09/14 09:55:37;;;;;;;3.85;1.25;;;22.20;52.50;;;;;;5037734;28;20017;-74
2022/09/14 09:58:25;;;;;;;2.72;1.08;;;22.30;52.80;;;;;;5028576;28;20075;-73
2022/09/14 10:01:00;;;;;;;4.18;1.67;;;22.40;53.10;;;;;;5034703;28;20529;-74
2022/09/14 14:27:04;;;;;;;5.88;3.13;;;26.70;46.10;;;;;;6091960;22;3430932;-74
2022/09/14 14:29:30;;;;;;;5.70;2.97;;;26.70;46.10;;;;;;6241403;23;20011;-74
2022/09/14 14:31:57;;;;;;;3.63;3.05;;;26.70;46.00;;;;;;6241708;23;20415;-75
2022/09/14 14:34:26;;;;;;;6.20;3.42;;;26.70;46.70;;;;;;6241733;23;20015;-73
2022/09/14 14:36:54;;;;;;;10.15;4.30;;;26.70;47.30;;;;;;6240602;23;20079;-73
2022/09/14 14:39:23;;;;;;;7.43;4.15;;;26.60;47.60;;;;;;6241991;23;20005;-74
2022/09/14 14:41:51;;;;;;;5.47;4.03;;;26.70;48.00;;;;;;6241114;23;19996;-73
2022/09/14 14:44:20;;;;;;;8.05;4.90;;;26.60;48.30;;;;;;6242768;23;20001;-74
2022/09/14 14:46:47;;;;;;;15.07;3.38;;;26.60;48.60;;;;;;6241537;23;20012;-74
2022/09/14 14:49:15;;;;;;;10.30;3.42;;;26.60;48.70;;;;;;6241124;23;20085;-75
2022/09/14 14:51:42;;;;;;;4.05;2.60;;;26.60;48.90;;;;;;6242171;23;20431;-75
2022/09/14 14:54:10;;;;;;;6.38;3.05;;;26.60;48.90;;;;;;6241367;23;20004;-74
2022/09/14 14:56:37;;;;;;;4.93;2.50;;;26.50;48.90;;;;;;6241890;23;19996;-74
2022/09/14 14:59:21;;;;;;;4.28;2.22;;;26.50;49.10;;;;;;6240614;23;19996;-73
2022/09/14 15:01:49;;;;;;;4.25;2.10;;;26.40;49.00;;;;;;6241480;23;20079;-74
2022/09/14 15:04:15;;;;;;;9.80;2.60;;;26.40;48.90;;;;;;6241728;23;19997;-74
2022/09/14 15:06:42;;;;;;;4.90;2.83;;;26.30;48.90;;;;;;6240826;23;20012;-74
2022/09/14 15:09:20;;;;;;;5.55;2.38;;;26.30;49.10;;;;;;6241356;23;20008;-74
2022/09/14 15:11:47;;;;;;;9.27;2.88;;;26.30;49.60;;;;;;6240638;23;20388;-73
2022/09/14 15:14:15;;;;;;;3.97;2.00;;;26.20;50.20;;;;;;6242230;23;20703;-74
2022/09/14 15:16:42;;;;;;;4.18;2.22;;;26.20;50.80;;;;;;6240940;23;20075;-74
2022/09/14 15:19:10;;;;;;;15.02;2.90;;;26.10;50.90;;;;;;6241125;23;20380;-74
2022/09/14 15:21:37;;;;;;;5.60;2.35;;;26.10;51.20;;;;;;6241650;23;20502;-74
2022/09/14 15:24:04;;;;;;;6.65;2.72;;;26.00;51.20;;;;;;6241360;23;20042;-75
2022/09/14 15:26:32;;;;;;;6.22;3.33;;;25.90;51.20;;;;;;6241666;23;20015;-74
2022/09/14 15:28:58;;;;;;;9.23;2.30;;;25.80;51.50;;;;;;6209758;23;20016;-78
2022/09/14 15:31:25;;;;;;;12.82;3.17;;;25.70;51.80;;;;;;6210837;23;20506;-72
2022/09/14 15:33:51;;;;;;;11.82;2.00;;;25.50;52.00;;;;;;6209891;23;20027;-74
2022/09/14 15:36:39;;;;;;;9.00;3.10;;;25.40;53.10;;;;;;6210313;23;20000;-73
2022/09/14 15:39:07;;;;;;;10.65;2.53;;;25.30;53.60;;;;;;6210922;23;20005;-73
2022/09/14 15:41:33;;;;;;;6.75;2.28;;;25.20;53.50;;;;;;6209378;23;19996;-71
2022/09/14 15:44:00;;;;;;;12.43;2.85;;;25.10;53.30;;;;;;6210777;23;20424;-74
2022/09/14 15:46:26;;;;;;;14.10;2.63;;;25.00;52.90;;;;;;6209248;23;20015;-73
2022/09/14 15:48:53;;;;;;;8.23;2.30;;;24.90;52.40;;;;;;6210864;23;20005;-72
2022/09/14 15:51:19;;;;;;;10.57;2.22;;;24.80;55.30;;;;;;6209531;23;20000;-75
2022/09/14 15:53:46;;;;;;;13.00;3.97;;;24.80;56.00;;;;;;6210612;23;20032;-74
2022/09/14 15:56:15;;;;;;;47.53;15.25;;;24.70;56.60;;;;;;6210076;23;20019;-71
2022/09/14 15:58:42;;;;;;;46.05;25.38;;;24.60;56.90;;;;;;6210226;23;19993;-69
2022/09/14 16:01:10;;;;;;;26.92;13.95;;;24.50;55.10;;;;;;6210215;23;20001;-70
2022/09/14 16:03:39;;;;;;;16.25;10.55;;;24.40;55.50;;;;;;6208903;23;20004;-73
2022/09/14 16:06:06;;;;;;;9.15;6.40;;;24.30;55.80;;;;;;6210292;23;20032;-72
2022/09/14 16:08:35;;;;;;;10.82;5.35;;;24.30;55.60;;;;;;6209526;23;19997;-72
2022/09/14 16:11:02;;;;;;;15.13;6.30;;;24.20;55.50;;;;;;6210959;23;20004;-72
2022/09/14 16:13:29;;;;;;;10.20;4.18;;;24.20;55.70;;;;;;6210457;23;20004;-73
2022/09/14 16:16:23;;;;;;;11.02;4.15;;;24.10;56.30;;;;;;6210371;23;20011;-70
2022/09/14 16:18:49;;;;;;;9.35;4.78;;;24.10;56.90;;;;;;6207760;23;20012;-73
2022/09/14 16:21:23;;;;;;;10.18;6.40;;;24.00;57.40;;;;;;6209610;23;20379;-71
2022/09/14 16:23:52;;;;;;;8.13;4.38;;;24.00;57.70;;;;;;6210232;23;20005;-73
2022/09/14 16:26:25;;;;;;;8.88;3.70;;;23.90;58.30;;;;;;6209738;23;20083;-71
2022/09/14 16:28:52;;;;;;;10.40;3.45;;;23.90;59.00;;;;;;6238883;23;20099;-71
2022/09/14 16:31:25;;;;;;;7.22;3.17;;;23.80;59.70;;;;;;6240584;23;20043;-78
2022/09/14 16:33:54;;;;;;;11.25;4.75;;;23.80;60.40;;;;;;6240127;23;20000;-73
2022/09/14 16:36:26;;;;;;;23.83;11.32;;;23.70;61.20;;;;;;6240916;23;20386;-71
2022/09/14 16:38:56;;;;;;;19.02;8.45;;;23.60;62.20;;;;;;6239383;23;20327;-72
2022/09/14 16:41:23;;;;;;;15.18;7.22;;;23.60;62.70;;;;;;6240889;23;20011;-71
2022/09/14 16:43:57;;;;;;;12.88;4.38;;;23.50;63.20;;;;;;6241178;23;20004;-71
2022/09/14 16:46:25;;;;;;;8.55;4.97;;;23.50;64.00;;;;;;6239605;23;20031;-68
2022/09/14 16:48:52;;;;;;;15.00;4.72;;;23.40;64.60;;;;;;6241049;23;20010;-72
2022/09/14 16:51:21;;;;;;;16.58;5.78;;;23.40;65.20;;;;;;6239454;23;20000;-69
2022/09/14 16:53:49;;;;;;;27.08;9.30;;;23.30;65.80;;;;;;6242805;23;20071;-70
2022/09/14 16:56:24;;;;;;;16.35;9.18;;;23.30;66.50;;;;;;6241986;23;20000;-72
2022/09/14 16:58:53;;;;;;;18.05;7.20;;;23.30;67.10;;;;;;6241733;23;20441;-72
2022/09/14 17:01:22;;;;;;;21.65;6.50;;;23.30;67.50;;;;;;6241303;23;20363;-68
2022/09/14 17:04:23;;;;;;;16.98;7.43;;;23.20;67.90;;;;;;6241284;23;20331;-67
2022/09/14 17:06:52;;;;;;;18.75;6.90;;;23.20;68.10;;;;;;6218638;23;20508;-68
2022/09/14 17:09:22;;;;;;;12.80;4.72;;;23.00;68.10;;;;;;6214895;23;20000;-68
2022/09/14 17:11:49;;;;;;;14.52;5.78;;;23.10;68.40;;;;;;6241674;23;20000;-68
2022/09/14 17:14:18;;;;;;;13.90;4.68;;;23.00;68.60;;;;;;6215925;23;20438;-69
2022/09/14 17:16:45;;;;;;;10.48;5.57;;;22.90;69.10;;;;;;6214625;23;20031;-67
2022/09/14 17:19:13;;;;;;;19.75;9.93;;;22.90;69.60;;;;;;6242634;23;20007;-71
2022/09/14 17:21:41;;;;;;;23.75;11.00;;;22.90;69.90;;;;;;6240921;23;19996;-67
2022/09/14 17:24:08;;;;;;;18.35;11.80;;;22.80;70.10;;;;;;6215562;23;20039;-75
2022/09/14 17:26:35;;;;;;;19.23;10.13;;;22.80;70.40;;;;;;6241772;23;20016;-72
2022/09/14 17:29:03;;;;;;;20.50;8.02;;;22.80;70.50;;;;;;6242814;23;20023;-73
2022/09/14 17:31:31;;;;;;;17.73;6.18;;;22.80;70.60;;;;;;6242056;23;20495;-75
2022/09/14 17:33:59;;;;;;;19.45;11.65;;;22.70;70.60;;;;;;6241877;23;20071;-71
2022/09/14 17:36:26;;;;;;;26.95;16.23;;;22.70;70.80;;;;;;6242833;23;20420;-73
2022/09/14 17:38:58;;;;;;;26.20;15.05;;;22.70;71.10;;;;;;6240775;23;20004;-74
2022/09/14 17:41:29;;;;;;;21.90;8.88;;;22.70;71.50;;;;;;6242968;23;20004;-74
2022/09/14 17:43:58;;;;;;;15.70;6.75;;;22.60;71.50;;;;;;6241120;23;20001;-77
2022/09/14 17:46:25;;;;;;;17.90;5.75;;;22.60;71.70;;;;;;6242299;23;20023;-70
2022/09/14 17:48:52;;;;;;;18.05;5.10;;;22.60;71.90;;;;;;6240580;23;20007;-69
2022/09/14 17:51:24;;;;;;;10.48;5.32;;;22.50;72.40;;;;;;6240098;23;20439;-73
2022/09/14 17:53:52;;;;;;;11.27;4.07;;;22.50;72.40;;;;;;6240592;23;19996;-73
2022/09/14 17:56:24;;;;;;;12.80;4.25;;;22.50;72.40;;;;;;6239412;23;20055;-73
2022/09/14 17:59:21;;;;;;;16.80;9.40;;;22.50;72.40;;;;;;6241913;23;20004;-71
2022/09/14 18:01:57;;;;;;;15.48;8.52;;;22.40;72.40;;;;;;6239314;23;20428;-75
2022/09/14 18:04:23;;;;;;;10.95;5.93;;;22.40;72.60;;;;;;6188961;23;20343;-79
2022/09/14 18:06:59;;;;;;;18.30;4.32;;;22.40;72.50;;;;;;6239375;23;20084;-71
2022/09/14 18:09:25;;;;;;;9.05;5.22;;;22.30;73.20;;;;;;6239455;23;20004;-72
2022/09/14 20:16:36;;;;;;;8.07;2.03;;;21.00;77.90;;;;;;5112654;27;20385;-72
2022/09/14 20:19:06;;;;;;;9.75;2.13;;;21.20;78.10;;;;;;5083095;28;20039;-70
2022/09/14 20:21:34;;;;;;;5.82;1.83;;;21.20;77.90;;;;;;5110103;27;20023;-72
2022/09/14 20:24:01;;;;;;;2.83;1.58;;;21.20;77.60;;;;;;5109926;28;20062;-71
2022/09/14 20:26:28;;;;;;;8.80;2.38;;;21.20;77.40;;;;;;5109153;27;20424;-71
2022/09/14 20:28:58;;;;;;;6.60;1.60;;;21.20;77.10;;;;;;5108974;28;20107;-70
2022/09/14 20:31:25;;;;;;;6.32;1.90;;;21.30;77.10;;;;;;5110942;28;20031;-73
2022/09/14 20:33:52;;;;;;;8.57;1.70;;;21.30;76.90;;;;;;5106614;28;20012;-72
2022/09/14 20:36:20;;;;;;;11.60;2.13;;;21.30;77.00;;;;;;5109431;28;20023;-70
2022/09/14 20:38:53;;;;;;;4.78;1.98;;;21.30;76.80;;;;;;5107116;28;20374;-71
2022/09/14 20:41:22;;;;;;;5.13;1.70;;;21.30;76.80;;;;;;5110830;28;20020;-74
2022/09/14 20:43:48;;;;;;;8.15;2.70;;;21.30;76.60;;;;;;5108126;28;20028;-69
2022/09/14 20:46:19;;;;;;;9.50;4.18;;;21.30;76.60;;;;;;5108153;28;20031;-70
2022/09/14 20:48:47;;;;;;;6.18;1.85;;;21.20;76.60;;;;;;5108402;28;20017;-74
2022/09/14 20:51:14;;;;;;;4.55;1.38;;;21.20;76.60;;;;;;5107520;28;20028;-73
2022/09/14 20:53:42;;;;;;;6.63;1.83;;;21.20;76.70;;;;;;5110810;27;20027;-73
2022/09/14 20:56:14;;;;;;;6.18;1.63;;;21.20;76.70;;;;;;5106299;28;20020;-73
2022/09/14 20:58:40;;;;;;;6.13;2.15;;;21.20;76.80;;;;;;5106866;28;20066;-72
2022/09/14 21:01:19;;;;;;;11.35;2.88;;;21.10;76.90;;;;;;5107878;28;20023;-72
2022/09/14 21:03:48;;;;;;;5.00;2.22;;;21.10;77.00;;;;;;5107254;28;20569;-74
2022/09/14 21:06:20;;;;;;;4.80;1.67;;;21.10;77.10;;;;;;5110721;28;20028;-75
2022/09/14 21:08:47;;;;;;;6.85;1.90;;;21.10;77.20;;;;;;5106167;28;20420;-70
2022/09/14 21:11:18;;;;;;;4.97;2.13;;;21.10;77.20;;;;;;5107918;28;20379;-70
2022/09/14 21:13:45;;;;;;;6.07;1.92;;;21.10;77.20;;;;;;5107268;28;20532;-71
2022/09/14 21:16:17;;;;;;;8.23;2.22;;;21.10;77.30;;;;;;5095534;28;20055;-70
2022/09/14 21:18:45;;;;;;;4.82;2.40;;;21.10;77.50;;;;;;5093408;28;20020;-72
2022/09/14 21:21:16;;;;;;;6.95;2.15;;;21.00;77.60;;;;;;5092796;28;20103;-70
2022/09/14 21:23:43;;;;;;;6.88;2.08;;;21.00;77.80;;;;;;5095806;28;20480;-72
2022/09/14 21:26:11;;;;;;;11.43;2.53;;;21.00;78.00;;;;;;5093121;28;20383;-70
2022/09/14 21:28:39;;;;;;;7.13;3.35;;;21.00;78.00;;;;;;5092842;28;20016;-72
2022/09/14 21:31:15;;;;;;;5.50;2.50;;;20.90;78.00;;;;;;5094427;28;20028;-71
2022/09/14 21:33:43;;;;;;;7.25;1.85;;;21.00;78.00;;;;;;5096234;28;20110;-71
2022/09/14 21:36:13;;;;;;;10.18;3.03;;;20.90;78.00;;;;;;5094345;28;20031;-73